sensor_id;sensor_type;location;lat;lon;timestamp;P1;durP1;ratioP1;P2;durP2;ratioP2
11998;SDS011;40817;51.520;9.954;2023-09-12T00:02:04;14.90;;;6.90;;
11998;SDS011;40817;51.520;9.954;2023-09-12T00:04:31;12.98;;;6.60;;
11998;SDS011;40817;51.520;9.954;2023-09-12T00:06:58;16.48;;;6.97;;
11998;SDS011;40817;51.520;9.954;2023-09-12T00:09:26;15.07;;;6.80;;
11998;SDS011;40817;51.520;9.954;2023-09-12T00:11:53;15.02;;;7.60;;
11998;SDS011;40817;51.520;9.954;2023-09-12T00:14:20;17.73;;;7.43;;
11998;SDS011;40817;51.520;9.954;2023-09-12T00:16:47;12.60;;;7.10;;
11998;SDS011;40817;51.520;9.954;2023-09-12T00:19:19;12.93;;;7.20;;
11998;SDS011;40817;51.520;9.954;2023-09-12T00:21:46;14.13;;;6.95;;
11998;SDS011;40817;51.520;9.954;2023-09-12T00:24:13;11.77;;;7.15;;
11998;SDS011;40817;51.520;9.954;2023-09-12T00:26:41;12.70;;;6.95;;
11998;SDS011;40817;51.520;9.954;2023-09-12T00:29:08;18.52;;;6.82;;
11998;SDS011;40817;51.520;9.954;2023-09-12T00:31:35;10.75;;;6.15;;
11998;SDS011;40817;51.520;9.954;2023-09-12T00:34:02;11.93;;;7.03;;
11998;SDS011;40817;51.520;9.954;2023-09-12T00:36:31;14.30;;;6.80;;
11998;SDS011;40817;51.520;9.954;2023-09-12T00:38:59;15.60;;;7.82;;
11998;SDS011;40817;51.520;9.954;2023-09-12T00:41:26;13.82;;;6.07;;
11998;SDS011;40817;51.520;9.954;2023-09-12T00:43:53;14.57;;;6.70;;
11998;SDS011;40817;51.520;9.954;2023-09-12T00:46:20;9.73;;;6.65;;
11998;SDS011;40817;51.520;9.954;2023-09-12T00:48:49;14.70;;;6.25;;
11998;SDS011;40817;51.520;9.954;2023-09-12T00:51:19;13.68;;;6.57;;
11998;SDS011;40817;51.520;9.954;2023-09-12T00:53:49;13.35;;;6.75;;
11998;SDS011;40817;51.520;9.954;2023-09-12T00:56:16;15.90;;;7.60;;
11998;SDS011;40817;51.520;9.954;2023-09-12T00:58:44;14.82;;;7.10;;
11998;SDS011;40817;51.520;9.954;2023-09-12T01:01:12;14.35;;;7.10;;
11998;SDS011;40817;51.520;9.954;2023-09-12T01:03:39;15.45;;;7.00;;
11998;SDS011;40817;51.520;9.954;2023-09-12T01:06:06;13.48;;;7.25;;
11998;SDS011;40817;51.520;9.954;2023-09-12T01:08:34;13.77;;;6.90;;
11998;SDS011;40817;51.520;9.954;2023-09-12T01:11:04;9.82;;;6.07;;
11998;SDS011;40817;51.520;9.954;2023-09-12T01:13:32;10.35;;;7.07;;
11998;SDS011;40817;51.520;9.954;2023-09-12T01:15:59;15.85;;;6.53;;
11998;SDS011;40817;51.520;9.954;2023-09-12T01:18:26;13.23;;;6.55;;
11998;SDS011;40817;51.520;9.954;2023-09-12T01:21:00;12.10;;;5.85;;
11998;SDS011;40817;51.520;9.954;2023-09-12T01:24:06;18.08;;;7.30;;
11998;SDS011;40817;51.520;9.954;2023-09-12T01:27:35;15.48;;;7.03;;
11998;SDS011;40817;51.520;9.954;2023-09-12T01:30:07;13.50;;;6.53;;
11998;SDS011;40817;51.520;9.954;2023-09-12T01:32:36;13.75;;;6.63;;
11998;SDS011;40817;51.520;9.954;2023-09-12T01:35:05;14.27;;;6.68;;
11998;SDS011;40817;51.520;9.954;2023-09-12T01:37:34;12.00;;;6.80;;
11998;SDS011;40817;51.520;9.954;2023-09-12T01:40:02;12.38;;;6.10;;
11998;SDS011;40817;51.520;9.954;2023-09-12T01:42:35;15.05;;;7.15;;
11998;SDS011;40817;51.520;9.954;2023-09-12T01:45:09;17.83;;;7.40;;
11998;SDS011;40817;51.520;9.954;2023-09-12T01:47:41;16.67;;;6.78;;
11998;SDS011;40817;51.520;9.954;2023-09-12T01:50:11;10.27;;;6.35;;
11998;SDS011;40817;51.520;9.954;2023-09-12T01:52:40;11.43;;;6.95;;
11998;SDS011;40817;51.520;9.954;2023-09-12T01:55:07;13.23;;;6.70;;
11998;SDS011;40817;51.520;9.954;2023-09-12T01:57:38;15.05;;;6.90;;
11998;SDS011;40817;51.520;9.954;2023-09-12T02:00:06;14.55;;;6.07;;
11998;SDS011;40817;51.520;9.954;2023-09-12T02:02:35;15.20;;;6.38;;
11998;SDS011;40817;51.520;9.954;2023-09-12T02:05:05;12.27;;;6.57;;
11998;SDS011;40817;51.520;9.954;2023-09-12T02:07:42;12.55;;;6.15;;
11998;SDS011;40817;51.520;9.954;2023-09-12T02:10:10;14.65;;;6.30;;
11998;SDS011;40817;51.520;9.954;2023-09-12T02:12:40;13.65;;;6.80;;
11998;SDS011;40817;51.520;9.954;2023-09-12T02:15:08;13.30;;;6.20;;
11998;SDS011;40817;51.520;9.954;2023-09-12T02:17:37;12.45;;;6.70;;
11998;SDS011;40817;51.520;9.954;2023-09-12T02:20:05;12.13;;;5.85;;
11998;SDS011;40817;51.520;9.954;2023-09-12T02:22:35;14.35;;;6.78;;
11998;SDS011;40817;51.520;9.954;2023-09-12T02:25:02;12.50;;;6.13;;
11998;SDS011;40817;51.520;9.954;2023-09-12T02:27:33;12.00;;;6.82;;
11998;SDS011;40817;51.520;9.954;2023-09-12T02:30:02;13.82;;;7.10;;
11998;SDS011;40817;51.520;9.954;2023-09-12T02:32:31;13.48;;;6.32;;
11998;SDS011;40817;51.520;9.954;2023-09-12T02:34:58;16.52;;;6.47;;
11998;SDS011;40817;51.520;9.954;2023-09-12T02:37:25;13.73;;;6.38;;
11998;SDS011;40817;51.520;9.954;2023-09-12T02:39:52;17.20;;;7.10;;
11998;SDS011;40817;51.520;9.954;2023-09-12T02:42:20;10.02;;;5.95;;
11998;SDS011;40817;51.520;9.954;2023-09-12T02:44:47;14.25;;;6.20;;
11998;SDS011;40817;51.520;9.954;2023-09-12T02:47:16;14.13;;;5.97;;
11998;SDS011;40817;51.520;9.954;2023-09-12T02:49:43;13.10;;;6.25;;
11998;SDS011;40817;51.520;9.954;2023-09-12T02:52:10;12.88;;;6.20;;
11998;SDS011;40817;51.520;9.954;2023-09-12T02:54:38;12.80;;;6.63;;
11998;SDS011;40817;51.520;9.954;2023-09-12T02:57:05;11.88;;;5.43;;
11998;SDS011;40817;51.520;9.954;2023-09-12T02:59:32;14.07;;;6.10;;
11998;SDS011;40817;51.520;9.954;2023-09-12T03:01:59;14.43;;;6.65;;
11998;SDS011;40817;51.520;9.954;2023-09-12T03:04:29;11.43;;;5.95;;
11998;SDS011;40817;51.520;9.954;2023-09-12T03:06:56;15.95;;;7.20;;
11998;SDS011;40817;51.520;9.954;2023-09-12T03:09:23;12.00;;;6.78;;
11998;SDS011;40817;51.520;9.954;2023-09-12T03:11:50;13.93;;;7.88;;
11998;SDS011;40817;51.520;9.954;2023-09-12T03:14:18;18.58;;;7.35;;
11998;SDS011;40817;51.520;9.954;2023-09-12T03:16:45;15.80;;;7.38;;
11998;SDS011;40817;51.520;9.954;2023-09-12T03:19:12;15.85;;;7.88;;
11998;SDS011;40817;51.520;9.954;2023-09-12T03:21:41;13.85;;;8.15;;
11998;SDS011;40817;51.520;9.954;2023-09-12T03:24:08;11.00;;;7.50;;
11998;SDS011;40817;51.520;9.954;2023-09-12T03:26:35;18.20;;;8.40;;
11998;SDS011;40817;51.520;9.954;2023-09-12T03:29:03;17.42;;;8.25;;
11998;SDS011;40817;51.520;9.954;2023-09-12T03:31:30;18.55;;;8.50;;
11998;SDS011;40817;51.520;9.954;2023-09-12T03:33:58;13.77;;;7.90;;
11998;SDS011;40817;51.520;9.954;2023-09-12T03:36:25;12.57;;;7.82;;
11998;SDS011;40817;51.520;9.954;2023-09-12T03:38:54;13.32;;;8.00;;
11998;SDS011;40817;51.520;9.954;2023-09-12T03:41:21;14.82;;;7.45;;
11998;SDS011;40817;51.520;9.954;2023-09-12T03:43:52;12.57;;;7.68;;
11998;SDS011;40817;51.520;9.954;2023-09-12T03:46:20;12.88;;;7.40;;
11998;SDS011;40817;51.520;9.954;2023-09-12T03:48:47;14.52;;;8.85;;
11998;SDS011;40817;51.520;9.954;2023-09-12T03:51:14;17.83;;;8.52;;
11998;SDS011;40817;51.520;9.954;2023-09-12T03:53:42;14.43;;;7.47;;
11998;SDS011;40817;51.520;9.954;2023-09-12T03:56:10;13.85;;;7.25;;
11998;SDS011;40817;51.520;9.954;2023-09-12T03:58:37;16.75;;;8.32;;
11998;SDS011;40817;51.520;9.954;2023-09-12T04:01:05;17.40;;;8.27;;
11998;SDS011;40817;51.520;9.954;2023-09-12T04:03:32;20.67;;;7.68;;
11998;SDS011;40817;51.520;9.954;2023-09-12T04:06:00;17.35;;;8.05;;
11998;SDS011;40817;51.520;9.954;2023-09-12T04:08:27;13.52;;;7.82;;
11998;SDS011;40817;51.520;9.954;2023-09-12T04:10:54;24.77;;;7.82;;
11998;SDS011;40817;51.520;9.954;2023-09-12T04:13:23;13.27;;;7.40;;
11998;SDS011;40817;51.520;9.954;2023-09-12T04:15:50;17.52;;;8.25;;
11998;SDS011;40817;51.520;9.954;2023-09-12T04:18:17;17.63;;;8.32;;
11998;SDS011;40817;51.520;9.954;2023-09-12T04:20:44;16.65;;;7.75;;
11998;SDS011;40817;51.520;9.954;2023-09-12T04:23:12;13.40;;;7.60;;
11998;SDS011;40817;51.520;9.954;2023-09-12T04:25:41;16.55;;;7.93;;
11998;SDS011;40817;51.520;9.954;2023-09-12T04:28:09;13.55;;;7.47;;
11998;SDS011;40817;51.520;9.954;2023-09-12T04:30:37;15.00;;;7.53;;
11998;SDS011;40817;51.520;9.954;2023-09-12T04:33:06;10.48;;;6.43;;
11998;SDS011;40817;51.520;9.954;2023-09-12T04:35:34;16.05;;;7.85;;
11998;SDS011;40817;51.520;9.954;2023-09-12T04:38:01;16.00;;;7.78;;
11998;SDS011;40817;51.520;9.954;2023-09-12T04:40:29;17.05;;;7.80;;
11998;SDS011;40817;51.520;9.954;2023-09-12T04:42:56;14.32;;;7.80;;
11998;SDS011;40817;51.520;9.954;2023-09-12T04:45:24;13.48;;;8.27;;
11998;SDS011;40817;51.520;9.954;2023-09-12T04:47:52;12.27;;;7.88;;
11998;SDS011;40817;51.520;9.954;2023-09-12T04:50:20;15.15;;;7.90;;
11998;SDS011;40817;51.520;9.954;2023-09-12T04:52:47;19.15;;;8.40;;
11998;SDS011;40817;51.520;9.954;2023-09-12T04:55:14;21.40;;;8.07;;
11998;SDS011;40817;51.520;9.954;2023-09-12T04:57:42;14.68;;;7.53;;
11998;SDS011;40817;51.520;9.954;2023-09-12T05:00:09;16.13;;;8.75;;
11998;SDS011;40817;51.520;9.954;2023-09-12T05:02:38;13.98;;;7.57;;
11998;SDS011;40817;51.520;9.954;2023-09-12T05:05:07;16.77;;;7.50;;
11998;SDS011;40817;51.520;9.954;2023-09-12T05:07:35;13.35;;;8.68;;
11998;SDS011;40817;51.520;9.954;2023-09-12T05:10:02;12.05;;;8.23;;
11998;SDS011;40817;51.520;9.954;2023-09-12T05:12:32;17.25;;;8.75;;
11998;SDS011;40817;51.520;9.954;2023-09-12T05:14:59;16.67;;;7.15;;
11998;SDS011;40817;51.520;9.954;2023-09-12T05:17:27;15.25;;;8.15;;
11998;SDS011;40817;51.520;9.954;2023-09-12T05:19:54;15.38;;;7.75;;
11998;SDS011;40817;51.520;9.954;2023-09-12T05:22:23;16.75;;;7.85;;
11998;SDS011;40817;51.520;9.954;2023-09-12T05:24:50;14.63;;;7.75;;
11998;SDS011;40817;51.520;9.954;2023-09-12T05:27:18;13.60;;;8.13;;
11998;SDS011;40817;51.520;9.954;2023-09-12T05:29:45;12.18;;;7.60;;
11998;SDS011;40817;51.520;9.954;2023-09-12T05:32:12;20.02;;;8.20;;
11998;SDS011;40817;51.520;9.954;2023-09-12T05:34:41;18.75;;;8.63;;
11998;SDS011;40817;51.520;9.954;2023-09-12T05:37:10;16.50;;;8.70;;
11998;SDS011;40817;51.520;9.954;2023-09-12T05:39:38;14.32;;;7.68;;
11998;SDS011;40817;51.520;9.954;2023-09-12T05:42:06;17.92;;;8.38;;
11998;SDS011;40817;51.520;9.954;2023-09-12T05:44:34;19.90;;;8.85;;
11998;SDS011;40817;51.520;9.954;2023-09-12T05:47:01;12.32;;;8.68;;
11998;SDS011;40817;51.520;9.954;2023-09-12T05:49:28;15.20;;;8.80;;
11998;SDS011;40817;51.520;9.954;2023-09-12T05:51:56;14.68;;;8.65;;
11998;SDS011;40817;51.520;9.954;2023-09-12T05:54:23;16.38;;;8.98;;
11998;SDS011;40817;51.520;9.954;2023-09-12T05:56:52;15.57;;;8.57;;
11998;SDS011;40817;51.520;9.954;2023-09-12T05:59:19;16.73;;;9.10;;
11998;SDS011;40817;51.520;9.954;2023-09-12T06:01:46;15.63;;;9.75;;
11998;SDS011;40817;51.520;9.954;2023-09-12T06:04:14;15.85;;;9.35;;
11998;SDS011;40817;51.520;9.954;2023-09-12T06:06:41;18.05;;;9.55;;
11998;SDS011;40817;51.520;9.954;2023-09-12T06:09:08;16.52;;;9.02;;
11998;SDS011;40817;51.520;9.954;2023-09-12T06:11:35;14.88;;;9.88;;
11998;SDS011;40817;51.520;9.954;2023-09-12T06:14:04;18.13;;;10.00;;
11998;SDS011;40817;51.520;9.954;2023-09-12T06:16:31;20.20;;;10.40;;
11998;SDS011;40817;51.520;9.954;2023-09-12T06:18:58;20.77;;;10.60;;
11998;SDS011;40817;51.520;9.954;2023-09-12T06:21:26;17.02;;;10.43;;
11998;SDS011;40817;51.520;9.954;2023-09-12T06:24:07;20.58;;;11.15;;
11998;SDS011;40817;51.520;9.954;2023-09-12T06:26:36;18.05;;;11.20;;
11998;SDS011;40817;51.520;9.954;2023-09-12T06:29:05;16.48;;;10.43;;
11998;SDS011;40817;51.520;9.954;2023-09-12T06:31:33;20.20;;;12.02;;
11998;SDS011;40817;51.520;9.954;2023-09-12T06:34:00;19.73;;;10.95;;
11998;SDS011;40817;51.520;9.954;2023-09-12T06:36:28;18.60;;;11.10;;
11998;SDS011;40817;51.520;9.954;2023-09-12T06:38:55;26.98;;;11.52;;
11998;SDS011;40817;51.520;9.954;2023-09-12T06:41:22;20.98;;;11.90;;
11998;SDS011;40817;51.520;9.954;2023-09-12T06:43:50;22.95;;;11.90;;
11998;SDS011;40817;51.520;9.954;2023-09-12T06:46:18;19.48;;;12.32;;
11998;SDS011;40817;51.520;9.954;2023-09-12T06:48:46;17.42;;;11.68;;
11998;SDS011;40817;51.520;9.954;2023-09-12T06:51:14;15.77;;;11.38;;
11998;SDS011;40817;51.520;9.954;2023-09-12T06:53:42;23.67;;;11.77;;
11998;SDS011;40817;51.520;9.954;2023-09-12T06:56:09;21.80;;;11.93;;
11998;SDS011;40817;51.520;9.954;2023-09-12T06:58:36;27.85;;;12.10;;
11998;SDS011;40817;51.520;9.954;2023-09-12T07:01:04;22.95;;;12.27;;
11998;SDS011;40817;51.520;9.954;2023-09-12T07:03:34;23.15;;;11.77;;
11998;SDS011;40817;51.520;9.954;2023-09-12T07:06:02;17.55;;;11.95;;
11998;SDS011;40817;51.520;9.954;2023-09-12T07:08:31;20.05;;;11.48;;
11998;SDS011;40817;51.520;9.954;2023-09-12T07:10:59;22.77;;;11.60;;
11998;SDS011;40817;51.520;9.954;2023-09-12T07:13:30;18.63;;;10.88;;
11998;SDS011;40817;51.520;9.954;2023-09-12T07:15:58;18.85;;;11.35;;
11998;SDS011;40817;51.520;9.954;2023-09-12T07:18:28;17.20;;;10.43;;
11998;SDS011;40817;51.520;9.954;2023-09-12T07:20:59;21.30;;;11.23;;
11998;SDS011;40817;51.520;9.954;2023-09-12T07:23:28;20.55;;;11.05;;
11998;SDS011;40817;51.520;9.954;2023-09-12T07:25:56;17.10;;;10.45;;
11998;SDS011;40817;51.520;9.954;2023-09-12T07:28:23;17.75;;;10.40;;
11998;SDS011;40817;51.520;9.954;2023-09-12T07:30:51;18.17;;;10.32;;
11998;SDS011;40817;51.520;9.954;2023-09-12T07:33:18;18.70;;;10.48;;
11998;SDS011;40817;51.520;9.954;2023-09-12T07:35:46;19.85;;;10.07;;
11998;SDS011;40817;51.520;9.954;2023-09-12T07:38:15;19.77;;;10.65;;
11998;SDS011;40817;51.520;9.954;2023-09-12T07:40:42;16.55;;;10.65;;
11998;SDS011;40817;51.520;9.954;2023-09-12T07:43:10;21.92;;;11.50;;
11998;SDS011;40817;51.520;9.954;2023-09-12T07:45:37;17.35;;;11.25;;
11998;SDS011;40817;51.520;9.954;2023-09-12T07:48:05;20.98;;;11.02;;
11998;SDS011;40817;51.520;9.954;2023-09-12T07:50:35;25.50;;;11.63;;
11998;SDS011;40817;51.520;9.954;2023-09-12T07:53:03;22.60;;;11.52;;
11998;SDS011;40817;51.520;9.954;2023-09-12T07:55:34;20.73;;;11.65;;
11998;SDS011;40817;51.520;9.954;2023-09-12T07:58:10;22.95;;;12.65;;
11998;SDS011;40817;51.520;9.954;2023-09-12T08:00:38;19.13;;;11.93;;
11998;SDS011;40817;51.520;9.954;2023-09-12T08:03:05;17.30;;;12.70;;
11998;SDS011;40817;51.520;9.954;2023-09-12T08:05:33;21.73;;;12.70;;
11998;SDS011;40817;51.520;9.954;2023-09-12T08:08:00;20.08;;;12.52;;
11998;SDS011;40817;51.520;9.954;2023-09-12T08:10:27;17.60;;;12.23;;
11998;SDS011;40817;51.520;9.954;2023-09-12T08:12:56;17.48;;;12.18;;
11998;SDS011;40817;51.520;9.954;2023-09-12T08:15:23;30.17;;;13.68;;
11998;SDS011;40817;51.520;9.954;2023-09-12T08:17:50;22.30;;;12.20;;
11998;SDS011;40817;51.520;9.954;2023-09-12T08:20:18;23.50;;;13.73;;
11998;SDS011;40817;51.520;9.954;2023-09-12T08:22:46;19.75;;;11.93;;
11998;SDS011;40817;51.520;9.954;2023-09-12T08:25:14;21.08;;;12.00;;
11998;SDS011;40817;51.520;9.954;2023-09-12T08:27:41;24.65;;;13.30;;
11998;SDS011;40817;51.520;9.954;2023-09-12T08:30:11;21.77;;;12.25;;
11998;SDS011;40817;51.520;9.954;2023-09-12T08:32:39;15.52;;;11.02;;
11998;SDS011;40817;51.520;9.954;2023-09-12T08:35:09;18.98;;;11.57;;
11998;SDS011;40817;51.520;9.954;2023-09-12T08:37:38;19.92;;;11.20;;
11998;SDS011;40817;51.520;9.954;2023-09-12T08:40:06;16.95;;;11.27;;
11998;SDS011;40817;51.520;9.954;2023-09-12T08:42:37;16.45;;;10.95;;
11998;SDS011;40817;51.520;9.954;2023-09-12T08:45:09;19.48;;;10.98;;
11998;SDS011;40817;51.520;9.954;2023-09-12T08:47:42;19.73;;;10.90;;
11998;SDS011;40817;51.520;9.954;2023-09-12T08:50:12;15.57;;;8.85;;
11998;SDS011;40817;51.520;9.954;2023-09-12T08:52:43;18.25;;;10.18;;
11998;SDS011;40817;51.520;9.954;2023-09-12T08:55:13;16.10;;;9.60;;
11998;SDS011;40817;51.520;9.954;2023-09-12T08:57:41;17.65;;;9.98;;
11998;SDS011;40817;51.520;9.954;2023-09-12T09:00:10;15.95;;;9.73;;
11998;SDS011;40817;51.520;9.954;2023-09-12T09:02:40;14.48;;;9.50;;
11998;SDS011;40817;51.520;9.954;2023-09-12T09:05:09;13.00;;;8.60;;
11998;SDS011;40817;51.520;9.954;2023-09-12T09:07:39;17.65;;;8.27;;
11998;SDS011;40817;51.520;9.954;2023-09-12T09:10:09;18.83;;;9.57;;
11998;SDS011;40817;51.520;9.954;2023-09-12T09:12:43;17.98;;;9.85;;
11998;SDS011;40817;51.520;9.954;2023-09-12T09:15:23;18.20;;;8.98;;
11998;SDS011;40817;51.520;9.954;2023-09-12T09:17:53;13.38;;;8.75;;
11998;SDS011;40817;51.520;9.954;2023-09-12T09:20:26;16.45;;;7.72;;
11998;SDS011;40817;51.520;9.954;2023-09-12T09:22:57;15.05;;;8.15;;
11998;SDS011;40817;51.520;9.954;2023-09-12T09:25:31;14.45;;;8.43;;
11998;SDS011;40817;51.520;9.954;2023-09-12T09:27:59;14.07;;;8.15;;
11998;SDS011;40817;51.520;9.954;2023-09-12T09:30:44;14.25;;;8.70;;
11998;SDS011;40817;51.520;9.954;2023-09-12T09:33:14;10.93;;;7.55;;
11998;SDS011;40817;51.520;9.954;2023-09-12T09:35:42;13.85;;;7.97;;
11998;SDS011;40817;51.520;9.954;2023-09-12T09:38:12;13.30;;;8.00;;
11998;SDS011;40817;51.520;9.954;2023-09-12T09:40:41;14.77;;;9.05;;
11998;SDS011;40817;51.520;9.954;2023-09-12T09:43:10;15.50;;;9.23;;
11998;SDS011;40817;51.520;9.954;2023-09-12T09:45:44;16.13;;;8.57;;
11998;SDS011;40817;51.520;9.954;2023-09-12T09:48:17;12.88;;;7.93;;
11998;SDS011;40817;51.520;9.954;2023-09-12T09:50:45;19.52;;;7.97;;
11998;SDS011;40817;51.520;9.954;2023-09-12T09:53:12;19.08;;;8.82;;
11998;SDS011;40817;51.520;9.954;2023-09-12T09:55:40;14.60;;;7.90;;
11998;SDS011;40817;51.520;9.954;2023-09-12T09:58:08;13.20;;;7.70;;
11998;SDS011;40817;51.520;9.954;2023-09-12T10:00:41;13.95;;;7.70;;
11998;SDS011;40817;51.520;9.954;2023-09-12T10:03:12;14.65;;;8.02;;
11998;SDS011;40817;51.520;9.954;2023-09-12T10:05:45;11.88;;;7.50;;
11998;SDS011;40817;51.520;9.954;2023-09-12T10:08:16;11.82;;;7.00;;
11998;SDS011;40817;51.520;9.954;2023-09-12T10:10:45;19.90;;;7.65;;
11998;SDS011;40817;51.520;9.954;2023-09-12T10:13:13;14.15;;;7.35;;
11998;SDS011;40817;51.520;9.954;2023-09-12T10:15:44;15.50;;;6.55;;
11998;SDS011;40817;51.520;9.954;2023-09-12T10:18:14;13.10;;;6.45;;
11998;SDS011;40817;51.520;9.954;2023-09-12T10:20:49;23.30;;;7.43;;
11998;SDS011;40817;51.520;9.954;2023-09-12T10:23:26;11.55;;;7.50;;
11998;SDS011;40817;51.520;9.954;2023-09-12T10:26:02;11.68;;;6.95;;
11998;SDS011;40817;51.520;9.954;2023-09-12T10:28:30;13.05;;;7.05;;
11998;SDS011;40817;51.520;9.954;2023-09-12T10:31:00;12.00;;;7.38;;
11998;SDS011;40817;51.520;9.954;2023-09-12T10:33:29;10.13;;;6.72;;
11998;SDS011;40817;51.520;9.954;2023-09-12T10:35:57;11.65;;;6.90;;
11998;SDS011;40817;51.520;9.954;2023-09-12T10:38:26;11.65;;;6.78;;
11998;SDS011;40817;51.520;9.954;2023-09-12T10:40:56;11.98;;;7.35;;
11998;SDS011;40817;51.520;9.954;2023-09-12T10:43:25;15.05;;;6.18;;
11998;SDS011;40817;51.520;9.954;2023-09-12T10:45:54;13.00;;;5.80;;
11998;SDS011;40817;51.520;9.954;2023-09-12T10:48:25;13.90;;;5.78;;
11998;SDS011;40817;51.520;9.954;2023-09-12T10:50:53;11.07;;;5.25;;
11998;SDS011;40817;51.520;9.954;2023-09-12T10:53:24;12.00;;;5.50;;
11998;SDS011;40817;51.520;9.954;2023-09-12T10:56:00;10.75;;;5.88;;
11998;SDS011;40817;51.520;9.954;2023-09-12T11:01:40;10.18;;;5.38;;
11998;SDS011;40817;51.520;9.954;2023-09-12T11:04:32;11.63;;;5.22;;
11998;SDS011;40817;51.520;9.954;2023-09-12T11:07:04;11.27;;;5.28;;
11998;SDS011;40817;51.520;9.954;2023-09-12T11:10:17;11.77;;;5.30;;
11998;SDS011;40817;51.520;9.954;2023-09-12T11:12:47;13.23;;;5.93;;
11998;SDS011;40817;51.520;9.954;2023-09-12T11:15:16;12.98;;;5.22;;
11998;SDS011;40817;51.520;9.954;2023-09-12T11:17:48;8.98;;;5.10;;
11998;SDS011;40817;51.520;9.954;2023-09-12T11:20:47;12.80;;;5.82;;
11998;SDS011;40817;51.520;9.954;2023-09-12T11:23:24;10.80;;;5.38;;
11998;SDS011;40817;51.520;9.954;2023-09-12T11:26:02;10.23;;;4.78;;
11998;SDS011;40817;51.520;9.954;2023-09-12T11:28:32;14.52;;;5.35;;
11998;SDS011;40817;51.520;9.954;2023-09-12T11:30:59;9.85;;;4.80;;
11998;SDS011;40817;51.520;9.954;2023-09-12T11:33:27;9.40;;;4.72;;
11998;SDS011;40817;51.520;9.954;2023-09-12T11:35:56;7.50;;;4.88;;
11998;SDS011;40817;51.520;9.954;2023-09-12T11:38:26;10.38;;;5.03;;
11998;SDS011;40817;51.520;9.954;2023-09-12T11:40:55;9.77;;;5.32;;
11998;SDS011;40817;51.520;9.954;2023-09-12T11:43:26;9.95;;;5.30;;
11998;SDS011;40817;51.520;9.954;2023-09-12T11:45:55;8.32;;;4.70;;
11998;SDS011;40817;51.520;9.954;2023-09-12T11:48:23;9.32;;;5.25;;
11998;SDS011;40817;51.520;9.954;2023-09-12T11:50:51;8.25;;;5.07;;
11998;SDS011;40817;51.520;9.954;2023-09-12T11:53:22;9.10;;;5.30;;
11998;SDS011;40817;51.520;9.954;2023-09-12T11:55:53;7.10;;;4.80;;
11998;SDS011;40817;51.520;9.954;2023-09-12T11:58:24;5.93;;;4.85;;
11998;SDS011;40817;51.520;9.954;2023-09-12T12:00:53;7.25;;;4.93;;
11998;SDS011;40817;51.520;9.954;2023-09-12T12:03:23;8.93;;;4.97;;
11998;SDS011;40817;51.520;9.954;2023-09-12T12:05:52;6.75;;;4.97;;
11998;SDS011;40817;51.520;9.954;2023-09-12T12:08:22;8.43;;;5.20;;
11998;SDS011;40817;51.520;9.954;2023-09-12T12:10:50;7.90;;;4.60;;
11998;SDS011;40817;51.520;9.954;2023-09-12T12:13:18;7.47;;;4.72;;
11998;SDS011;40817;51.520;9.954;2023-09-12T12:15:47;6.32;;;4.85;;
11998;SDS011;40817;51.520;9.954;2023-09-12T12:18:14;7.35;;;4.13;;
11998;SDS011;40817;51.520;9.954;2023-09-12T12:20:42;7.25;;;4.15;;
11998;SDS011;40817;51.520;9.954;2023-09-12T12:23:09;6.43;;;4.40;;
11998;SDS011;40817;51.520;9.954;2023-09-12T12:25:38;6.18;;;4.22;;
11998;SDS011;40817;51.520;9.954;2023-09-12T12:28:06;7.60;;;4.03;;
11998;SDS011;40817;51.520;9.954;2023-09-12T12:30:34;6.45;;;3.97;;
11998;SDS011;40817;51.520;9.954;2023-09-12T12:33:06;6.30;;;3.40;;
11998;SDS011;40817;51.520;9.954;2023-09-12T12:35:35;5.13;;;3.30;;
11998;SDS011;40817;51.520;9.954;2023-09-12T12:38:03;7.65;;;3.90;;
11998;SDS011;40817;51.520;9.954;2023-09-12T12:40:30;4.85;;;3.53;;
11998;SDS011;40817;51.520;9.954;2023-09-12T12:43:00;3.60;;;3.25;;
11998;SDS011;40817;51.520;9.954;2023-09-12T12:45:27;4.10;;;3.40;;
11998;SDS011;40817;51.520;9.954;2023-09-12T12:47:56;3.75;;;2.97;;
11998;SDS011;40817;51.520;9.954;2023-09-12T12:50:26;4.28;;;3.08;;
11998;SDS011;40817;51.520;9.954;2023-09-12T12:52:53;4.38;;;3.22;;
11998;SDS011;40817;51.520;9.954;2023-09-12T12:55:21;5.93;;;3.60;;
11998;SDS011;40817;51.520;9.954;2023-09-12T12:57:51;5.15;;;3.20;;
11998;SDS011;40817;51.520;9.954;2023-09-12T13:00:20;5.22;;;3.42;;
11998;SDS011;40817;51.520;9.954;2023-09-12T13:02:48;7.78;;;3.17;;
11998;SDS011;40817;51.520;9.954;2023-09-12T13:05:24;4.75;;;3.08;;
11998;SDS011;40817;51.520;9.954;2023-09-12T13:07:53;4.75;;;3.08;;
11998;SDS011;40817;51.520;9.954;2023-09-12T13:10:21;7.80;;;2.80;;
11998;SDS011;40817;51.520;9.954;2023-09-12T13:12:49;4.30;;;3.38;;
11998;SDS011;40817;51.520;9.954;2023-09-12T13:15:17;3.65;;;2.80;;
11998;SDS011;40817;51.520;9.954;2023-09-12T13:17:45;6.82;;;3.13;;
11998;SDS011;40817;51.520;9.954;2023-09-12T13:20:13;3.97;;;2.80;;
11998;SDS011;40817;51.520;9.954;2023-09-12T13:22:40;5.18;;;3.33;;
11998;SDS011;40817;51.520;9.954;2023-09-12T13:25:08;5.10;;;2.97;;
11998;SDS011;40817;51.520;9.954;2023-09-12T13:27:36;4.13;;;2.67;;
11998;SDS011;40817;51.520;9.954;2023-09-12T13:30:04;5.85;;;3.33;;
11998;SDS011;40817;51.520;9.954;2023-09-12T13:32:35;6.13;;;3.45;;
11998;SDS011;40817;51.520;9.954;2023-09-12T13:35:02;5.95;;;3.30;;
11998;SDS011;40817;51.520;9.954;2023-09-12T13:37:31;5.35;;;3.20;;
11998;SDS011;40817;51.520;9.954;2023-09-12T13:39:58;3.47;;;2.90;;
11998;SDS011;40817;51.520;9.954;2023-09-12T13:42:26;5.05;;;2.90;;
11998;SDS011;40817;51.520;9.954;2023-09-12T13:44:56;5.50;;;3.28;;
11998;SDS011;40817;51.520;9.954;2023-09-12T13:47:23;6.72;;;3.22;;
11998;SDS011;40817;51.520;9.954;2023-09-12T13:49:52;5.18;;;2.67;;
11998;SDS011;40817;51.520;9.954;2023-09-12T13:52:19;4.38;;;3.65;;
11998;SDS011;40817;51.520;9.954;2023-09-12T13:54:47;4.20;;;3.10;;
11998;SDS011;40817;51.520;9.954;2023-09-12T13:57:15;6.40;;;2.80;;
11998;SDS011;40817;51.520;9.954;2023-09-12T13:59:42;5.88;;;2.92;;
11998;SDS011;40817;51.520;9.954;2023-09-12T14:02:10;4.55;;;2.80;;
11998;SDS011;40817;51.520;9.954;2023-09-12T14:04:37;4.63;;;2.83;;
11998;SDS011;40817;51.520;9.954;2023-09-12T14:07:06;4.72;;;3.30;;
11998;SDS011;40817;51.520;9.954;2023-09-12T14:09:33;4.78;;;2.80;;
11998;SDS011;40817;51.520;9.954;2023-09-12T14:12:01;6.95;;;3.00;;
11998;SDS011;40817;51.520;9.954;2023-09-12T14:14:28;4.57;;;3.05;;
11998;SDS011;40817;51.520;9.954;2023-09-12T14:16:55;5.72;;;2.90;;
11998;SDS011;40817;51.520;9.954;2023-09-12T14:19:22;5.90;;;3.00;;
11998;SDS011;40817;51.520;9.954;2023-09-12T14:21:50;4.05;;;2.80;;
11998;SDS011;40817;51.520;9.954;2023-09-12T14:24:19;5.07;;;2.80;;
11998;SDS011;40817;51.520;9.954;2023-09-12T14:26:46;5.53;;;3.15;;
11998;SDS011;40817;51.520;9.954;2023-09-12T14:29:14;6.88;;;2.72;;
11998;SDS011;40817;51.520;9.954;2023-09-12T14:31:41;3.92;;;2.90;;
11998;SDS011;40817;51.520;9.954;2023-09-12T14:34:15;4.53;;;2.40;;
11998;SDS011;40817;51.520;9.954;2023-09-12T14:36:42;6.72;;;2.88;;
11998;SDS011;40817;51.520;9.954;2023-09-12T14:39:11;4.28;;;2.80;;
11998;SDS011;40817;51.520;9.954;2023-09-12T14:41:41;4.70;;;3.20;;
11998;SDS011;40817;51.520;9.954;2023-09-12T14:44:09;4.90;;;3.08;;
11998;SDS011;40817;51.520;9.954;2023-09-12T14:46:36;7.20;;;2.92;;
11998;SDS011;40817;51.520;9.954;2023-09-12T14:49:03;5.65;;;3.20;;
11998;SDS011;40817;51.520;9.954;2023-09-12T14:51:31;6.63;;;3.67;;